LIC0209 LEBL-LEBA
Flight info
| Callsign | LIC0209 |
|---|---|
| Flight time | 1h 36m |
| Altitude | 37000 |
| Route | SENIA Z596 NEXAS N975 ADUXO N869 BLN N747 ALCOL |
| Aircraft | A320/M-SDE3FGHIRWY/LB1 |
Departure
| Time | 2026-05-07 11:33 |
|---|---|
| Airport | Josep Tarradellas Barcelona-El Prat Airport (LEBL) |
Arrival
| Time | 2026-05-07 13:09 |
|---|---|
| Airport | Córdoba Airport (LEBA) |
| Time | Latitude | Longitude | Altitude | Speed | Heading |
|---|---|---|---|---|---|
| 2026-05-07 11:17 | 41.29122 | 2.07308 | 20 ft | 0 kts | 156° |
| 2026-05-07 11:27 | 41.29128 | 2.07305 | 19 ft | 4 kts | 156° |
| 2026-05-07 11:27 | 41.29153 | 2.07290 | 21 ft | 4 kts | 151° |
| 2026-05-07 11:27 | 41.29173 | 2.07269 | 22 ft | 4 kts | 120° |
| 2026-05-07 11:28 | 41.29178 | 2.07239 | 19 ft | 3 kts | 69° |
| 2026-05-07 11:28 | 41.29175 | 2.07229 | 21 ft | 0 kts | 65° |
| 2026-05-07 11:31 | 41.29178 | 2.07238 | 20 ft | 4 kts | 66° |
| 2026-05-07 11:31 | 41.29196 | 2.07291 | 20 ft | 8 kts | 64° |
| 2026-05-07 11:31 | 41.29233 | 2.07372 | 19 ft | 12 kts | 37° |
| 2026-05-07 11:32 | 41.29340 | 2.07248 | 18 ft | 11 kts | 303° |
| 2026-05-07 11:32 | 41.29407 | 2.07193 | 16 ft | 11 kts | 334° |
| 2026-05-07 11:32 | 41.29475 | 2.07173 | 17 ft | 9 kts | 34° |
| 2026-05-07 11:33 | 41.29486 | 2.07201 | 17 ft | 1 kts | 65° |
| 2026-05-07 11:33 | 41.29613 | 2.07567 | 19 ft | 90 kts | 66° |
| 2026-05-07 11:33 | 41.29974 | 2.08630 | 44 ft | 156 kts | 66° |
| 2026-05-07 11:33 | 41.30458 | 2.09955 | 789 ft | 164 kts | 65° |
| 2026-05-07 11:34 | 41.30992 | 2.11343 | 1731 ft | 169 kts | 67° |
| 2026-05-07 11:34 | 41.31493 | 2.12818 | 2476 ft | 185 kts | 69° |
| 2026-05-07 11:34 | 41.32041 | 2.14484 | 3022 ft | 208 kts | 68° |
| 2026-05-07 11:34 | 41.32653 | 2.16331 | 3626 ft | 231 kts | 66° |
| 2026-05-07 11:35 | 41.33493 | 2.18301 | 4288 ft | 257 kts | 56° |
| 2026-05-07 11:35 | 41.34592 | 2.20239 | 4479 ft | 265 kts | 49° |
| 2026-05-07 11:35 | 41.35815 | 2.22071 | 4505 ft | 265 kts | 47° |
| 2026-05-07 11:35 | 41.37067 | 2.23872 | 4506 ft | 265 kts | 46° |
| 2026-05-07 11:36 | 41.38312 | 2.25680 | 4504 ft | 265 kts | 47° |
| 2026-05-07 11:36 | 41.39542 | 2.27510 | 4505 ft | 265 kts | 48° |
| 2026-05-07 11:36 | 41.40756 | 2.29353 | 4509 ft | 265 kts | 48° |
| 2026-05-07 11:36 | 41.41962 | 2.31213 | 4501 ft | 266 kts | 49° |
| 2026-05-07 11:37 | 41.43165 | 2.33082 | 4508 ft | 267 kts | 48° |
| 2026-05-07 11:37 | 41.44426 | 2.34956 | 5198 ft | 275 kts | 46° |
| 2026-05-07 11:37 | 41.45714 | 2.36815 | 6606 ft | 273 kts | 46° |
| 2026-05-07 11:37 | 41.47015 | 2.38685 | 7780 ft | 279 kts | 45° |
| 2026-05-07 11:38 | 41.48350 | 2.40608 | 8913 ft | 286 kts | 46° |
| 2026-05-07 11:38 | 41.49712 | 2.42579 | 10047 ft | 293 kts | 46° |
| 2026-05-07 11:38 | 41.50996 | 2.44800 | 10702 ft | 316 kts | 61° |
| 2026-05-07 11:38 | 41.51808 | 2.47632 | 11339 ft | 335 kts | 77° |
| 2026-05-07 11:39 | 41.52094 | 2.50744 | 12302 ft | 342 kts | 90° |
| 2026-05-07 11:39 | 41.51992 | 2.53932 | 13319 ft | 346 kts | 95° |
| 2026-05-07 11:39 | 41.51865 | 2.57157 | 14298 ft | 350 kts | 94° |
| 2026-05-07 11:39 | 41.51750 | 2.60420 | 15185 ft | 355 kts | 94° |
| 2026-05-07 11:40 | 41.51637 | 2.63694 | 16006 ft | 361 kts | 95° |
| 2026-05-07 11:40 | 41.51521 | 2.67062 | 16871 ft | 366 kts | 95° |
| 2026-05-07 11:40 | 41.51397 | 2.70488 | 17711 ft | 372 kts | 95° |
| 2026-05-07 11:40 | 41.51266 | 2.73960 | 18507 ft | 378 kts | 95° |
| 2026-05-07 11:41 | 41.51131 | 2.77492 | 19205 ft | 384 kts | 95° |
| 2026-05-07 11:41 | 41.50992 | 2.81077 | 19906 ft | 390 kts | 95° |
| 2026-05-07 11:41 | 41.50845 | 2.84721 | 20584 ft | 396 kts | 96° |
| 2026-05-07 11:41 | 41.50360 | 2.88343 | 21228 ft | 398 kts | 110° |
| 2026-05-07 11:42 | 41.49228 | 2.91706 | 21883 ft | 399 kts | 125° |
| 2026-05-07 11:42 | 41.47522 | 2.94604 | 22537 ft | 397 kts | 140° |
| 2026-05-07 11:42 | 41.45355 | 2.96854 | 23196 ft | 395 kts | 154° |
| 2026-05-07 11:42 | 41.42861 | 2.98344 | 23808 ft | 392 kts | 168° |
| 2026-05-07 11:43 | 41.40208 | 2.99099 | 24380 ft | 389 kts | 178° |
| 2026-05-07 11:43 | 41.37516 | 2.99220 | 24993 ft | 386 kts | 188° |
| 2026-05-07 11:43 | 41.34882 | 2.98682 | 25620 ft | 382 kts | 198° |
| 2026-05-07 11:43 | 41.32403 | 2.97482 | 26248 ft | 378 kts | 209° |
| 2026-05-07 11:44 | 41.30154 | 2.95696 | 26862 ft | 376 kts | 216° |
| 2026-05-07 11:44 | 41.27974 | 2.93781 | 27567 ft | 375 kts | 216° |
| 2026-05-07 11:44 | 41.25791 | 2.91875 | 28231 ft | 375 kts | 216° |
| 2026-05-07 11:44 | 41.23601 | 2.89971 | 28852 ft | 376 kts | 216° |
| 2026-05-07 11:45 | 41.22146 | 2.88712 | 29269 ft | 377 kts | 216° |
| 2026-05-07 11:45 | 41.19947 | 2.86817 | 29854 ft | 378 kts | 216° |
| 2026-05-07 11:45 | 41.17733 | 2.84911 | 30371 ft | 379 kts | 216° |
| 2026-05-07 11:45 | 41.15516 | 2.83004 | 30805 ft | 381 kts | 215° |
| 2026-05-07 11:46 | 41.13281 | 2.81078 | 31210 ft | 384 kts | 215° |
| 2026-05-07 11:46 | 41.11037 | 2.79142 | 31619 ft | 386 kts | 215° |
| 2026-05-07 11:46 | 41.08779 | 2.77192 | 31991 ft | 388 kts | 215° |
| 2026-05-07 11:46 | 41.06514 | 2.75241 | 32541 ft | 387 kts | 215° |
| 2026-05-07 11:47 | 41.04264 | 2.73308 | 33122 ft | 385 kts | 215° |
| 2026-05-07 11:47 | 41.02020 | 2.71378 | 33696 ft | 383 kts | 215° |
| 2026-05-07 11:47 | 40.99787 | 2.69455 | 34216 ft | 382 kts | 215° |
| 2026-05-07 11:47 | 40.97601 | 2.67461 | 34653 ft | 381 kts | 220° |
| 2026-05-07 11:48 | 40.95704 | 2.65016 | 35053 ft | 382 kts | 230° |
| 2026-05-07 11:48 | 40.94198 | 2.62113 | 35404 ft | 385 kts | 239° |
| 2026-05-07 11:48 | 40.93143 | 2.58839 | 35755 ft | 390 kts | 249° |
| 2026-05-07 11:48 | 40.92367 | 2.55446 | 36107 ft | 392 kts | 250° |
| 2026-05-07 11:49 | 40.91571 | 2.51997 | 36466 ft | 392 kts | 250° |
| 2026-05-07 11:49 | 40.90767 | 2.48545 | 36821 ft | 393 kts | 250° |
| 2026-05-07 11:49 | 40.89956 | 2.45085 | 36990 ft | 394 kts | 249° |
| 2026-05-07 11:50 | 40.88336 | 2.38189 | 36996 ft | 392 kts | 249° |
| 2026-05-07 11:50 | 40.86721 | 2.31346 | 37015 ft | 389 kts | 249° |
| 2026-05-07 11:51 | 40.85104 | 2.24516 | 37008 ft | 390 kts | 249° |
| 2026-05-07 11:51 | 40.83755 | 2.17553 | 37011 ft | 397 kts | 259° |
| 2026-05-07 11:52 | 40.83817 | 2.10199 | 37007 ft | 402 kts | 267° |
| 2026-05-07 11:52 | 40.84025 | 2.02828 | 37006 ft | 402 kts | 266° |
| 2026-05-07 11:53 | 40.84220 | 1.95446 | 37004 ft | 402 kts | 266° |
| 2026-05-07 11:53 | 40.84418 | 1.88073 | 37023 ft | 402 kts | 266° |
| 2026-05-07 11:54 | 40.84610 | 1.80682 | 37004 ft | 403 kts | 266° |
| 2026-05-07 11:54 | 40.84799 | 1.73280 | 36999 ft | 403 kts | 266° |
| 2026-05-07 11:55 | 40.84986 | 1.65869 | 36998 ft | 404 kts | 266° |
| 2026-05-07 11:55 | 40.85166 | 1.58454 | 36998 ft | 404 kts | 266° |
| 2026-05-07 11:56 | 40.85342 | 1.51089 | 37019 ft | 404 kts | 266° |
| 2026-05-07 11:56 | 40.85505 | 1.43659 | 37001 ft | 405 kts | 266° |
| 2026-05-07 11:57 | 40.85666 | 1.36216 | 36996 ft | 406 kts | 266° |
| 2026-05-07 11:57 | 40.85830 | 1.28766 | 36995 ft | 406 kts | 266° |
| 2026-05-07 11:58 | 40.85994 | 1.21304 | 36996 ft | 406 kts | 266° |
| 2026-05-07 11:58 | 40.86144 | 1.13846 | 37020 ft | 407 kts | 266° |
| 2026-05-07 11:59 | 40.86292 | 1.06369 | 37000 ft | 408 kts | 266° |
| 2026-05-07 11:59 | 40.86437 | 0.98873 | 36993 ft | 408 kts | 266° |
| 2026-05-07 12:00 | 40.86576 | 0.91374 | 36988 ft | 409 kts | 266° |
| 2026-05-07 12:00 | 40.86710 | 0.83863 | 36991 ft | 409 kts | 266° |
| 2026-05-07 12:01 | 40.86836 | 0.76351 | 37016 ft | 409 kts | 266° |
| 2026-05-07 12:01 | 40.86939 | 0.68829 | 36994 ft | 410 kts | 265° |
| 2026-05-07 12:02 | 40.86987 | 0.61339 | 36990 ft | 411 kts | 265° |
| 2026-05-07 12:02 | 40.87024 | 0.53791 | 36981 ft | 411 kts | 265° |
| 2026-05-07 12:03 | 40.87061 | 0.46236 | 36982 ft | 411 kts | 265° |
| 2026-05-07 12:03 | 40.87105 | 0.38673 | 36983 ft | 412 kts | 265° |
| 2026-05-07 12:04 | 40.87145 | 0.31108 | 36998 ft | 412 kts | 265° |
| 2026-05-07 12:04 | 40.87181 | 0.23532 | 36991 ft | 412 kts | 265° |
| 2026-05-07 12:05 | 40.87208 | 0.15960 | 36984 ft | 412 kts | 265° |
| 2026-05-07 12:05 | 40.87222 | 0.08391 | 36974 ft | 412 kts | 265° |
| 2026-05-07 12:06 | 40.87240 | 0.00816 | 36977 ft | 412 kts | 265° |
| 2026-05-07 12:06 | 40.87259 | -0.06766 | 36973 ft | 413 kts | 265° |
| 2026-05-07 12:07 | 40.87268 | -0.14364 | 36966 ft | 414 kts | 265° |
| 2026-05-07 12:07 | 40.87268 | -0.21973 | 36965 ft | 414 kts | 265° |
| 2026-05-07 12:08 | 40.87258 | -0.29587 | 36960 ft | 414 kts | 265° |
| 2026-05-07 12:08 | 40.87249 | -0.37149 | 36958 ft | 415 kts | 265° |
| 2026-05-07 12:09 | 40.87240 | -0.44772 | 36962 ft | 415 kts | 265° |
| 2026-05-07 12:09 | 40.87221 | -0.52396 | 36960 ft | 415 kts | 265° |
| 2026-05-07 12:10 | 40.87190 | -0.60016 | 36964 ft | 415 kts | 265° |
| 2026-05-07 12:10 | 40.87161 | -0.67641 | 36963 ft | 415 kts | 265° |
| 2026-05-07 12:11 | 40.87128 | -0.75264 | 36963 ft | 415 kts | 264° |
| 2026-05-07 12:11 | 40.86191 | -0.82648 | 36973 ft | 405 kts | 247° |
| 2026-05-07 12:12 | 40.84240 | -0.89636 | 36960 ft | 406 kts | 246° |
| 2026-05-07 12:12 | 40.82301 | -0.96638 | 36961 ft | 406 kts | 246° |
| 2026-05-07 12:13 | 40.80364 | -1.03648 | 36957 ft | 407 kts | 246° |
| 2026-05-07 12:13 | 40.78412 | -1.10657 | 36962 ft | 407 kts | 246° |
| 2026-05-07 12:14 | 40.76456 | -1.17661 | 36978 ft | 407 kts | 246° |
| 2026-05-07 12:14 | 40.74493 | -1.24680 | 36969 ft | 408 kts | 246° |
| 2026-05-07 12:15 | 40.72523 | -1.31701 | 36969 ft | 409 kts | 246° |
| 2026-05-07 12:15 | 40.70548 | -1.38726 | 36972 ft | 409 kts | 246° |
| 2026-05-07 12:16 | 40.68565 | -1.45756 | 36974 ft | 409 kts | 246° |
| 2026-05-07 12:16 | 40.66578 | -1.52779 | 36984 ft | 409 kts | 246° |
| 2026-05-07 12:17 | 40.64585 | -1.59813 | 36965 ft | 410 kts | 246° |
| 2026-05-07 12:17 | 40.62589 | -1.66857 | 36971 ft | 411 kts | 246° |
| 2026-05-07 12:18 | 40.60582 | -1.73911 | 36966 ft | 412 kts | 246° |
| 2026-05-07 12:18 | 40.58566 | -1.80960 | 36968 ft | 412 kts | 246° |
| 2026-05-07 12:19 | 40.56541 | -1.88012 | 36964 ft | 412 kts | 246° |
| 2026-05-07 12:19 | 40.54511 | -1.95063 | 36981 ft | 413 kts | 246° |
| 2026-05-07 12:20 | 40.52401 | -2.02084 | 36967 ft | 412 kts | 241° |
| 2026-05-07 12:20 | 40.49012 | -2.08066 | 36951 ft | 409 kts | 222° |
| 2026-05-07 12:21 | 40.44412 | -2.12432 | 36966 ft | 409 kts | 214° |
| 2026-05-07 12:21 | 40.39687 | -2.16578 | 36967 ft | 409 kts | 214° |
| 2026-05-07 12:22 | 40.34968 | -2.20733 | 36971 ft | 408 kts | 214° |
| 2026-05-07 12:22 | 40.30249 | -2.24878 | 36985 ft | 408 kts | 214° |
| 2026-05-07 12:23 | 40.25529 | -2.29016 | 36978 ft | 408 kts | 214° |
| 2026-05-07 12:23 | 40.20800 | -2.33148 | 36959 ft | 410 kts | 214° |
| 2026-05-07 12:24 | 40.16049 | -2.37285 | 36950 ft | 410 kts | 214° |
| 2026-05-07 12:24 | 40.11293 | -2.41428 | 36956 ft | 411 kts | 214° |
| 2026-05-07 12:25 | 40.06529 | -2.45573 | 36952 ft | 412 kts | 214° |
| 2026-05-07 12:25 | 40.01757 | -2.49708 | 36954 ft | 412 kts | 214° |
| 2026-05-07 12:26 | 39.97017 | -2.53816 | 36953 ft | 412 kts | 214° |
| 2026-05-07 12:26 | 39.92244 | -2.57955 | 36954 ft | 412 kts | 214° |
| 2026-05-07 12:27 | 39.87466 | -2.62085 | 36950 ft | 412 kts | 214° |
| 2026-05-07 12:27 | 39.82683 | -2.66199 | 36961 ft | 412 kts | 214° |
| 2026-05-07 12:28 | 39.77893 | -2.70312 | 36958 ft | 413 kts | 214° |
| 2026-05-07 12:28 | 39.73100 | -2.74439 | 36941 ft | 414 kts | 215° |
| 2026-05-07 12:29 | 39.68292 | -2.78572 | 36932 ft | 415 kts | 215° |
| 2026-05-07 12:29 | 39.63471 | -2.82699 | 36933 ft | 415 kts | 215° |
| 2026-05-07 12:30 | 39.58647 | -2.86826 | 36933 ft | 415 kts | 215° |
| 2026-05-07 12:30 | 39.53824 | -2.90946 | 36910 ft | 415 kts | 215° |
| 2026-05-07 12:31 | 39.48992 | -2.95059 | 36921 ft | 416 kts | 215° |
| 2026-05-07 12:31 | 39.44158 | -2.99167 | 36919 ft | 416 kts | 215° |
| 2026-05-07 12:32 | 39.39216 | -3.03057 | 36928 ft | 418 kts | 206° |
| 2026-05-07 12:32 | 39.33777 | -3.05764 | 36926 ft | 419 kts | 203° |
| 2026-05-07 12:33 | 39.25561 | -3.09766 | 36895 ft | 422 kts | 204° |
| 2026-05-07 12:33 | 39.20058 | -3.12442 | 36904 ft | 424 kts | 204° |
| 2026-05-07 12:34 | 39.15468 | -3.14663 | 36907 ft | 424 kts | 204° |
| 2026-05-07 12:34 | 39.09930 | -3.17338 | 36914 ft | 425 kts | 204° |
| 2026-05-07 12:35 | 39.04392 | -3.20012 | 36898 ft | 425 kts | 204° |
| 2026-05-07 12:35 | 38.98849 | -3.22682 | 36910 ft | 426 kts | 204° |
| 2026-05-07 12:36 | 38.93302 | -3.25353 | 36918 ft | 426 kts | 204° |
| 2026-05-07 12:36 | 38.87752 | -3.28019 | 36924 ft | 426 kts | 204° |
| 2026-05-07 12:37 | 38.82201 | -3.30678 | 36898 ft | 426 kts | 205° |
| 2026-05-07 12:37 | 38.76646 | -3.33339 | 36917 ft | 426 kts | 205° |
| 2026-05-07 12:38 | 38.71092 | -3.36003 | 36925 ft | 427 kts | 205° |
| 2026-05-07 12:38 | 38.65531 | -3.38664 | 36923 ft | 427 kts | 205° |
| 2026-05-07 12:39 | 38.59964 | -3.41318 | 36913 ft | 427 kts | 205° |
| 2026-05-07 12:39 | 38.54391 | -3.43961 | 36914 ft | 428 kts | 206° |
| 2026-05-07 12:40 | 38.51591 | -3.45289 | 36713 ft | 430 kts | 206° |
| 2026-05-07 12:40 | 38.48781 | -3.46622 | 36458 ft | 431 kts | 206° |
| 2026-05-07 12:40 | 38.45968 | -3.47957 | 36207 ft | 431 kts | 206° |
| 2026-05-07 12:40 | 38.43156 | -3.49293 | 35955 ft | 432 kts | 206° |
| 2026-05-07 12:41 | 38.40342 | -3.50631 | 35711 ft | 432 kts | 206° |
| 2026-05-07 12:41 | 38.37522 | -3.51969 | 35457 ft | 432 kts | 207° |
| 2026-05-07 12:41 | 38.34703 | -3.53305 | 34927 ft | 433 kts | 207° |
| 2026-05-07 12:41 | 38.31854 | -3.54656 | 33836 ft | 441 kts | 207° |
| 2026-05-07 12:42 | 38.28958 | -3.56028 | 32681 ft | 446 kts | 207° |
| 2026-05-07 12:42 | 38.26073 | -3.57384 | 32106 ft | 438 kts | 207° |
| 2026-05-07 12:42 | 38.23230 | -3.58711 | 31425 ft | 433 kts | 207° |
| 2026-05-07 12:42 | 38.20433 | -3.60014 | 31050 ft | 421 kts | 207° |
| 2026-05-07 12:43 | 38.17737 | -3.61265 | 30934 ft | 401 kts | 207° |
| 2026-05-07 12:43 | 38.15209 | -3.62441 | 30804 ft | 372 kts | 210° |
| 2026-05-07 12:43 | 38.13078 | -3.63950 | 30647 ft | 332 kts | 227° |
| 2026-05-07 12:43 | 38.11546 | -3.65923 | 30525 ft | 298 kts | 242° |
| 2026-05-07 12:44 | 38.10538 | -3.68077 | 30276 ft | 273 kts | 254° |
| 2026-05-07 12:44 | 38.09984 | -3.70305 | 29926 ft | 259 kts | 265° |
| 2026-05-07 12:44 | 38.09700 | -3.72559 | 29191 ft | 263 kts | 261° |
| 2026-05-07 12:44 | 38.09161 | -3.74860 | 27958 ft | 280 kts | 255° |
| 2026-05-07 12:45 | 38.08452 | -3.77237 | 26703 ft | 295 kts | 252° |
| 2026-05-07 12:45 | 38.07658 | -3.79713 | 25765 ft | 313 kts | 250° |
| 2026-05-07 12:45 | 38.06807 | -3.82352 | 25502 ft | 331 kts | 250° |
| 2026-05-07 12:45 | 38.05941 | -3.85077 | 25059 ft | 336 kts | 251° |
| 2026-05-07 12:46 | 38.05086 | -3.87829 | 24589 ft | 334 kts | 252° |
| 2026-05-07 12:46 | 38.04249 | -3.90572 | 24118 ft | 332 kts | 251° |
| 2026-05-07 12:46 | 38.03425 | -3.93306 | 23650 ft | 331 kts | 251° |
| 2026-05-07 12:46 | 38.02608 | -3.96029 | 23130 ft | 330 kts | 251° |
| 2026-05-07 12:47 | 38.01797 | -3.98744 | 22653 ft | 328 kts | 251° |
| 2026-05-07 12:47 | 38.00990 | -4.01442 | 22173 ft | 327 kts | 251° |
| 2026-05-07 12:47 | 38.00186 | -4.04129 | 21691 ft | 325 kts | 250° |
| 2026-05-07 12:47 | 37.99387 | -4.06801 | 21210 ft | 324 kts | 250° |
| 2026-05-07 12:48 | 37.98589 | -4.09461 | 20731 ft | 322 kts | 250° |
| 2026-05-07 12:48 | 37.97791 | -4.12110 | 20230 ft | 321 kts | 250° |
| 2026-05-07 12:48 | 37.97005 | -4.14707 | 19750 ft | 320 kts | 249° |
| 2026-05-07 12:48 | 37.96207 | -4.17332 | 19254 ft | 319 kts | 249° |
| 2026-05-07 12:49 | 37.95411 | -4.19950 | 18760 ft | 318 kts | 249° |
| 2026-05-07 12:49 | 37.94603 | -4.22603 | 18266 ft | 318 kts | 249° |
| 2026-05-07 12:49 | 37.93809 | -4.25220 | 17726 ft | 318 kts | 249° |
| 2026-05-07 12:49 | 37.93031 | -4.27797 | 17237 ft | 316 kts | 249° |
| 2026-05-07 12:50 | 37.92247 | -4.30395 | 16766 ft | 315 kts | 249° |
| 2026-05-07 12:50 | 37.91463 | -4.32978 | 16287 ft | 314 kts | 248° |
| 2026-05-07 12:50 | 37.90680 | -4.35550 | 15817 ft | 313 kts | 248° |
| 2026-05-07 12:50 | 37.89899 | -4.38115 | 15348 ft | 312 kts | 248° |
| 2026-05-07 12:51 | 37.89119 | -4.40675 | 14875 ft | 311 kts | 248° |
| 2026-05-07 12:51 | 37.88339 | -4.43229 | 14400 ft | 311 kts | 248° |
| 2026-05-07 12:51 | 37.87558 | -4.45792 | 13904 ft | 313 kts | 248° |
| 2026-05-07 12:51 | 37.86774 | -4.48364 | 13355 ft | 314 kts | 249° |
| 2026-05-07 12:52 | 37.86353 | -4.51094 | 12469 ft | 325 kts | 272° |
| 2026-05-07 12:52 | 37.87072 | -4.53782 | 12015 ft | 325 kts | 303° |
| 2026-05-07 12:52 | 37.88763 | -4.55641 | 11849 ft | 319 kts | 332° |
| 2026-05-07 12:52 | 37.90914 | -4.56221 | 11434 ft | 320 kts | 1° |
| 2026-05-07 12:53 | 37.93058 | -4.55447 | 10773 ft | 328 kts | 26° |
| 2026-05-07 12:53 | 37.95099 | -4.54085 | 10220 ft | 331 kts | 27° |
| 2026-05-07 12:53 | 37.97090 | -4.52743 | 10096 ft | 317 kts | 27° |
| 2026-05-07 12:53 | 37.98997 | -4.51452 | 9971 ft | 304 kts | 27° |
| 2026-05-07 12:54 | 38.00808 | -4.50221 | 9810 ft | 294 kts | 27° |
| 2026-05-07 12:54 | 38.02517 | -4.48954 | 9660 ft | 274 kts | 33° |
| 2026-05-07 12:54 | 38.03980 | -4.47568 | 9532 ft | 252 kts | 41° |
| 2026-05-07 12:54 | 38.05088 | -4.45960 | 9396 ft | 233 kts | 59° |
| 2026-05-07 12:55 | 38.05692 | -4.44135 | 9265 ft | 219 kts | 79° |
| 2026-05-07 12:55 | 38.05783 | -4.42235 | 9156 ft | 215 kts | 99° |
| 2026-05-07 12:55 | 38.05401 | -4.40428 | 9087 ft | 212 kts | 119° |
| 2026-05-07 12:55 | 38.04620 | -4.38871 | 9088 ft | 208 kts | 136° |
| 2026-05-07 12:56 | 38.03539 | -4.37684 | 9084 ft | 204 kts | 152° |
| 2026-05-07 12:56 | 38.02260 | -4.36946 | 9084 ft | 201 kts | 168° |
| 2026-05-07 12:56 | 38.00885 | -4.36703 | 9086 ft | 199 kts | 183° |
| 2026-05-07 12:56 | 37.99507 | -4.36821 | 9088 ft | 198 kts | 189° |
| 2026-05-07 12:57 | 37.98143 | -4.37043 | 9090 ft | 197 kts | 191° |
| 2026-05-07 12:57 | 37.96794 | -4.37283 | 9091 ft | 195 kts | 191° |
| 2026-05-07 12:57 | 37.95452 | -4.37525 | 9087 ft | 195 kts | 191° |
| 2026-05-07 12:57 | 37.94100 | -4.37767 | 9088 ft | 197 kts | 190° |
| 2026-05-07 12:58 | 37.92739 | -4.38006 | 9088 ft | 198 kts | 190° |
| 2026-05-07 12:58 | 37.91401 | -4.38352 | 9091 ft | 195 kts | 200° |
| 2026-05-07 12:58 | 37.90177 | -4.39069 | 9092 ft | 196 kts | 214° |
| 2026-05-07 12:58 | 37.89133 | -4.40328 | 9067 ft | 234 kts | 238° |
| 2026-05-07 12:59 | 37.88728 | -4.42404 | 8956 ft | 247 kts | 274° |
| 2026-05-07 12:59 | 37.89414 | -4.44357 | 8823 ft | 249 kts | 309° |
| 2026-05-07 12:59 | 37.90711 | -4.45826 | 8697 ft | 252 kts | 320° |
| 2026-05-07 12:59 | 37.92147 | -4.47130 | 8561 ft | 254 kts | 323° |
| 2026-05-07 13:00 | 37.93603 | -4.48381 | 8437 ft | 252 kts | 323° |
| 2026-05-07 13:00 | 37.95047 | -4.49638 | 8302 ft | 252 kts | 322° |
| 2026-05-07 13:00 | 37.96481 | -4.50922 | 8175 ft | 252 kts | 321° |
| 2026-05-07 13:00 | 37.97898 | -4.52218 | 8049 ft | 251 kts | 320° |
| 2026-05-07 13:01 | 37.99308 | -4.53530 | 7923 ft | 251 kts | 321° |
| 2026-05-07 13:01 | 38.00706 | -4.54847 | 7795 ft | 251 kts | 320° |
| 2026-05-07 13:01 | 38.02103 | -4.56172 | 7582 ft | 252 kts | 321° |
| 2026-05-07 13:01 | 38.03522 | -4.57521 | 7152 ft | 254 kts | 321° |
| 2026-05-07 13:02 | 38.04911 | -4.58856 | 6885 ft | 248 kts | 317° |
| 2026-05-07 13:02 | 38.05979 | -4.60513 | 6546 ft | 241 kts | 294° |
| 2026-05-07 13:02 | 38.06453 | -4.62510 | 6189 ft | 234 kts | 271° |
| 2026-05-07 13:02 | 38.06313 | -4.64529 | 5842 ft | 228 kts | 251° |
| 2026-05-07 13:03 | 38.05618 | -4.66322 | 5482 ft | 228 kts | 231° |
| 2026-05-07 13:03 | 38.04472 | -4.67713 | 4947 ft | 233 kts | 216° |
| 2026-05-07 13:03 | 38.03164 | -4.68964 | 4545 ft | 235 kts | 217° |
| 2026-05-07 13:03 | 38.01870 | -4.70203 | 4242 ft | 229 kts | 216° |
| 2026-05-07 13:04 | 38.00648 | -4.71337 | 3796 ft | 203 kts | 213° |
| 2026-05-07 13:04 | 37.99559 | -4.72270 | 3614 ft | 177 kts | 212° |
| 2026-05-07 13:04 | 37.98610 | -4.73064 | 3515 ft | 149 kts | 211° |
| 2026-05-07 13:04 | 37.97801 | -4.73740 | 3439 ft | 132 kts | 211° |
| 2026-05-07 13:05 | 37.97068 | -4.74353 | 3397 ft | 124 kts | 212° |
| 2026-05-07 13:05 | 37.96359 | -4.74947 | 3335 ft | 121 kts | 212° |
| 2026-05-07 13:05 | 37.95660 | -4.75534 | 3252 ft | 122 kts | 212° |
| 2026-05-07 13:05 | 37.94965 | -4.76120 | 3049 ft | 118 kts | 212° |
| 2026-05-07 13:06 | 37.94282 | -4.76695 | 2856 ft | 119 kts | 212° |
| 2026-05-07 13:06 | 37.93593 | -4.77274 | 2672 ft | 118 kts | 212° |
| 2026-05-07 13:06 | 37.92920 | -4.77839 | 2492 ft | 117 kts | 212° |
| 2026-05-07 13:06 | 37.92239 | -4.78411 | 2299 ft | 118 kts | 213° |
| 2026-05-07 13:07 | 37.91553 | -4.78989 | 2128 ft | 118 kts | 212° |
| 2026-05-07 13:07 | 37.90872 | -4.79562 | 1939 ft | 118 kts | 212° |
| 2026-05-07 13:07 | 37.90181 | -4.80143 | 1719 ft | 121 kts | 212° |
| 2026-05-07 13:07 | 37.89469 | -4.80742 | 1527 ft | 125 kts | 213° |
| 2026-05-07 13:08 | 37.88743 | -4.81355 | 1347 ft | 126 kts | 213° |
| 2026-05-07 13:08 | 37.88017 | -4.81969 | 1157 ft | 125 kts | 213° |
| 2026-05-07 13:08 | 37.87305 | -4.82570 | 977 ft | 121 kts | 214° |
| 2026-05-07 13:08 | 37.86614 | -4.83151 | 790 ft | 119 kts | 213° |
| 2026-05-07 13:09 | 37.85930 | -4.83695 | 615 ft | 115 kts | 211° |
| 2026-05-07 13:09 | 37.85214 | -4.84142 | 400 ft | 114 kts | 211° |
| 2026-05-07 13:09 | 37.84538 | -4.84629 | 310 ft | 109 kts | 212° |
| 2026-05-07 13:09 | 37.84051 | -4.84987 | 302 ft | 41 kts | 210° |
| 2026-05-07 13:10 | 37.83978 | -4.85047 | 302 ft | 11 kts | 241° |
| 2026-05-07 13:10 | 37.83974 | -4.85088 | 301 ft | 2 kts | 202° |
| 2026-05-07 13:10 | 37.83975 | -4.85063 | 303 ft | 4 kts | 55° |
| 2026-05-07 13:10 | 37.84032 | -4.85008 | 303 ft | 19 kts | 28° |
| 2026-05-07 13:11 | 37.84158 | -4.84918 | 302 ft | 22 kts | 30° |
| 2026-05-07 13:11 | 37.84282 | -4.84829 | 307 ft | 20 kts | 30° |
| 2026-05-07 13:11 | 37.84344 | -4.84718 | 307 ft | 11 kts | 116° |
| 2026-05-07 13:11 | 37.84335 | -4.84682 | 308 ft | 0 kts | 111° |
| 2026-05-07 13:12 | 37.84334 | -4.84681 | 308 ft | 6 kts | 111° |
| 2026-05-07 13:12 | 37.84328 | -4.84573 | 310 ft | 9 kts | 52° |
| 2026-05-07 13:13 | 37.84314 | -4.84504 | 309 ft | 9 kts | 114° |
| 2026-05-07 13:13 | 37.84292 | -4.84450 | 309 ft | 0 kts | 120° |